createdAt,value
2022-11-11T00:02:07.310Z,7.15
2022-11-11T00:05:28.303Z,7.18
2022-11-11T00:08:49.630Z,7.20
2022-11-11T00:12:10.569Z,7.15
2022-11-11T00:15:31.693Z,7.15
2022-11-11T00:19:10.844Z,7.12
2022-11-11T00:22:50.157Z,7.06
2022-11-11T00:26:37.970Z,7.15
2022-11-11T00:29:54.993Z,7.00
2022-11-11T00:33:15.793Z,6.89
2022-11-11T00:36:36.397Z,6.91
2022-11-11T00:39:57.163Z,6.91
2022-11-11T00:43:17.997Z,6.96
2022-11-11T00:46:57.133Z,6.88
2022-11-11T00:50:42.506Z,6.85
2022-11-11T00:54:03.441Z,6.57
2022-11-11T00:57:24.235Z,6.40
2022-11-11T01:00:45.513Z,6.20
2022-11-11T01:04:06.559Z,6.13
2022-11-11T01:07:27.885Z,6.07
2022-11-11T01:10:49.719Z,5.97
2022-11-11T01:14:11.106Z,5.90
2022-11-11T01:17:32.423Z,5.82
2022-11-11T01:20:59.782Z,5.75
2022-11-11T01:24:21.230Z,5.75
2022-11-11T01:27:42.408Z,5.76
2022-11-11T01:31:09.189Z,5.72
2022-11-11T01:34:30.331Z,5.62
2022-11-11T01:37:51.427Z,5.58
2022-11-11T01:41:32.967Z,5.54
2022-11-11T01:44:54.331Z,5.45
2022-11-11T01:49:02.040Z,5.42
2022-11-11T01:52:31.983Z,5.24
2022-11-11T01:55:54.173Z,5.20
2022-11-11T01:59:17.930Z,5.13
2022-11-11T02:02:43.624Z,5.19
2022-11-11T02:06:04.897Z,5.17
2022-11-11T02:09:26.698Z,5.23
2022-11-11T02:13:06.108Z,5.21
2022-11-11T02:16:27.490Z,5.26
2022-11-11T02:19:57.953Z,5.35
2022-11-11T02:23:37.592Z,5.35
2022-11-11T02:27:00.226Z,5.35
2022-11-11T02:30:21.745Z,5.32
2022-11-11T02:33:42.821Z,5.35
2022-11-11T02:37:06.787Z,5.29
2022-11-11T02:40:37.254Z,5.31
2022-11-11T02:43:58.141Z,5.22
2022-11-11T02:47:19.186Z,5.22
2022-11-11T02:50:40.039Z,5.11
2022-11-11T02:54:01.277Z,5.16
2022-11-11T02:57:23.013Z,5.05
2022-11-11T03:00:44.353Z,4.98
2022-11-11T03:04:06.246Z,4.89
2022-11-11T03:07:27.479Z,4.83
2022-11-11T03:10:48.818Z,4.92
2022-11-11T03:14:10.260Z,4.87
2022-11-11T03:17:40.144Z,4.96
2022-11-11T03:21:54.388Z,4.91
2022-11-11T03:25:06.502Z,4.87
2022-11-11T03:28:27.583Z,4.68
2022-11-11T03:31:50.719Z,4.57
2022-11-11T03:35:11.561Z,4.50
2022-11-11T03:38:32.647Z,4.46
2022-11-11T03:41:53.729Z,4.51
2022-11-11T03:45:14.842Z,4.57
2022-11-11T03:48:35.779Z,4.60
2022-11-11T03:51:56.518Z,4.58
2022-11-11T03:55:17.493Z,4.71
2022-11-11T03:58:38.241Z,4.95
2022-11-11T04:02:17.387Z,5.13
2022-11-11T04:05:56.817Z,5.15
2022-11-11T04:09:36.076Z,5.22
2022-11-11T04:13:18.104Z,5.28
2022-11-11T04:16:39.143Z,5.08
2022-11-11T04:20:18.342Z,4.85
2022-11-11T04:23:39.313Z,5.81
2022-11-11T04:27:02.343Z,6.36
2022-11-11T04:30:23.058Z,6.10
2022-11-11T04:33:43.772Z,5.96
2022-11-11T04:37:04.655Z,6.02
2022-11-11T04:40:43.868Z,6.11
2022-11-11T04:44:23.998Z,6.15
2022-11-11T04:47:53.406Z,6.02
2022-11-11T04:51:14.490Z,6.08
2022-11-11T04:54:55.148Z,6.23
2022-11-11T04:58:18.027Z,6.32
2022-11-11T05:01:57.629Z,6.52
2022-11-11T05:05:18.329Z,6.10
2022-11-11T05:08:56.431Z,5.77
2022-11-11T05:12:17.670Z,5.41
2022-11-11T05:15:58.965Z,5.52
2022-11-11T05:19:38.722Z,6.51
2022-11-11T05:22:59.452Z,6.43
2022-11-11T05:26:20.435Z,6.77
2022-11-11T05:29:41.460Z,6.74
2022-11-11T05:33:02.944Z,6.84
2022-11-11T05:36:24.102Z,6.64
2022-11-11T05:39:45.900Z,6.60
2022-11-11T05:43:06.915Z,6.95
2022-11-11T05:46:28.051Z,7.07
2022-11-11T05:49:48.795Z,6.66
2022-11-11T05:53:09.717Z,6.55
2022-11-11T05:56:30.736Z,6.38
2022-11-11T05:59:51.657Z,6.40
2022-11-11T06:03:13.185Z,6.41
2022-11-11T06:06:35.843Z,6.07
2022-11-11T06:10:17.299Z,6.39
2022-11-11T06:13:38.476Z,6.07
2022-11-11T06:16:59.549Z,6.58
2022-11-11T06:20:20.942Z,6.48
2022-11-11T06:23:42.029Z,6.56
2022-11-11T06:27:02.811Z,6.58
2022-11-11T06:30:51.816Z,6.66
2022-11-11T06:34:04.758Z,6.66
2022-11-11T06:37:25.833Z,6.69
2022-11-11T06:40:47.015Z,6.80
2022-11-11T06:44:07.938Z,6.38
2022-11-11T06:47:29.125Z,6.35
2022-11-11T06:50:50.986Z,6.38
2022-11-11T06:54:12.045Z,6.44
2022-11-11T06:57:33.845Z,6.54
2022-11-11T07:00:54.823Z,6.70
2022-11-11T07:04:16.266Z,6.65
2022-11-11T07:07:37.715Z,6.74
2022-11-11T07:11:03.484Z,6.93
2022-11-11T07:14:28.233Z,7.03
2022-11-11T07:17:49.165Z,7.22
2022-11-11T07:21:09.961Z,7.44
2022-11-11T07:24:30.932Z,7.64
2022-11-11T07:27:57.804Z,7.75
2022-11-11T07:31:20.206Z,7.91
2022-11-11T07:34:41.448Z,8.13
2022-11-11T07:38:03.196Z,8.29
2022-11-11T07:41:24.592Z,8.50
2022-11-11T07:44:49.330Z,8.57
2022-11-11T07:48:11.046Z,8.50
2022-11-11T07:51:32.400Z,8.65
2022-11-11T07:54:53.601Z,8.74
2022-11-11T07:58:14.779Z,8.81
2022-11-11T08:01:36.573Z,8.88
2022-11-11T08:04:58.178Z,8.86
2022-11-11T08:08:25.475Z,8.85
2022-11-11T08:12:05.817Z,8.90
2022-11-11T08:15:27.083Z,8.87
2022-11-11T08:18:48.493Z,8.83
2022-11-11T08:22:10.014Z,8.77
2022-11-11T08:25:32.003Z,8.71
2022-11-11T08:28:53.773Z,8.67
2022-11-11T08:32:15.325Z,8.67
2022-11-11T08:35:36.470Z,8.67
2022-11-11T08:38:57.814Z,8.80
2022-11-11T08:42:19.193Z,8.76
2022-11-11T08:45:40.635Z,8.68
2022-11-11T08:49:02.449Z,8.73
2022-11-11T08:52:23.610Z,8.79
2022-11-11T08:55:45.412Z,8.89
2022-11-11T08:59:06.822Z,8.94
2022-11-11T09:02:28.050Z,9.10
2022-11-11T09:05:49.391Z,9.22
2022-11-11T09:09:10.596Z,9.52
2022-11-11T09:12:33.298Z,9.80
2022-11-11T09:15:55.327Z,9.91
2022-11-11T09:19:16.145Z,10.15
2022-11-11T09:22:43.263Z,10.26
2022-11-11T09:26:04.350Z,10.24
2022-11-11T09:29:25.543Z,10.40
2022-11-11T09:33:12.731Z,10.59
2022-11-11T09:36:39.427Z,10.81
2022-11-11T09:40:01.466Z,11.01
2022-11-11T09:43:29.966Z,11.41
2022-11-11T09:47:39.955Z,11.51
2022-11-11T09:51:05.618Z,11.54
2022-11-11T09:54:50.440Z,11.71
2022-11-11T09:58:35.047Z,11.85
2022-11-11T10:01:59.606Z,12.20
2022-11-11T10:05:31.104Z,12.60
2022-11-11T10:09:02.672Z,12.87
2022-11-11T10:12:43.371Z,13.06
2022-11-11T10:16:26.245Z,13.17
2022-11-11T10:20:14.235Z,13.14
2022-11-11T10:23:37.699Z,13.35
2022-11-11T10:27:04.866Z,13.58
2022-11-11T10:30:32.036Z,13.60
2022-11-11T10:34:02.955Z,13.66
2022-11-11T10:37:31.402Z,13.49
2022-11-11T10:40:59.780Z,13.36
2022-11-11T10:44:27.729Z,13.21
2022-11-11T10:48:07.602Z,13.18
2022-11-11T10:51:37.191Z,13.20
2022-11-11T10:55:24.080Z,13.31
2022-11-11T10:58:48.344Z,13.29
2022-11-11T11:02:23.648Z,13.28
2022-11-11T11:06:12.364Z,13.33
2022-11-11T11:10:11.077Z,13.33
2022-11-11T11:13:55.242Z,13.25
2022-11-11T11:17:47.027Z,13.34
2022-11-11T11:21:21.706Z,13.26
2022-11-11T11:25:20.434Z,13.33
2022-11-11T11:29:46.841Z,13.62
2022-11-11T11:33:15.400Z,13.87
2022-11-11T11:36:46.607Z,14.00
2022-11-11T11:40:15.077Z,13.90
2022-11-11T11:43:48.123Z,13.88
2022-11-11T11:47:29.537Z,13.97
2022-11-11T11:50:58.926Z,14.23
2022-11-11T11:54:50.933Z,14.11
2022-11-11T11:58:47.036Z,14.13
2022-11-11T12:02:57.349Z,14.09
2022-11-11T12:07:29.343Z,13.88
2022-11-11T12:11:24.476Z,14.09
2022-11-11T12:15:29.350Z,14.14
2022-11-11T12:20:09.020Z,13.81
2022-11-11T12:24:10.378Z,13.98
2022-11-11T12:28:02.678Z,13.98
2022-11-11T12:31:36.840Z,14.76
2022-11-11T12:35:42.456Z,14.86
2022-11-11T12:43:54.855Z,14.17
2022-11-11T12:47:43.769Z,14.29
2022-11-11T12:51:59.559Z,13.76
2022-11-11T12:55:32.807Z,13.49
2022-11-11T13:00:18.600Z,13.33
2022-11-11T13:08:32.000Z,13.30
2022-11-11T13:16:28.319Z,13.23
2022-11-11T13:20:04.961Z,13.23
2022-11-11T13:24:27.732Z,13.17
2022-11-11T13:28:49.532Z,13.20
2022-11-11T13:32:31.576Z,13.24
2022-11-11T13:36:24.741Z,13.17
2022-11-11T13:39:51.969Z,13.15
2022-11-11T13:43:34.173Z,13.12
2022-11-11T13:47:02.879Z,13.01
2022-11-11T13:50:36.352Z,13.06
2022-11-11T13:53:59.582Z,13.02
2022-11-11T13:57:23.774Z,12.89
2022-11-11T14:00:44.764Z,12.88
2022-11-11T14:04:08.342Z,12.78
2022-11-11T14:07:57.514Z,12.64
2022-11-11T14:11:24.254Z,12.53
2022-11-11T14:14:50.443Z,12.40
2022-11-11T14:18:32.003Z,12.27
2022-11-11T14:22:16.910Z,12.14
2022-11-11T14:25:37.751Z,11.97
2022-11-11T14:29:03.775Z,11.88
2022-11-11T14:32:38.242Z,11.75
2022-11-11T14:36:07.025Z,11.67
2022-11-11T14:39:45.079Z,11.56
2022-11-11T14:43:41.680Z,11.73
2022-11-11T14:47:02.630Z,12.14
2022-11-11T14:50:32.408Z,12.45
2022-11-11T14:53:54.054Z,12.47
2022-11-11T14:57:30.626Z,12.49
2022-11-11T15:01:03.686Z,12.41
2022-11-11T15:04:26.836Z,12.33
2022-11-11T15:08:00.249Z,12.14
2022-11-11T15:11:37.012Z,12.04
2022-11-11T15:15:25.893Z,12.22
2022-11-11T15:18:54.769Z,12.04
2022-11-11T15:22:51.180Z,11.52
2022-11-11T15:26:47.346Z,10.97
2022-11-11T15:30:19.145Z,10.65
2022-11-11T15:33:59.482Z,10.53
2022-11-11T15:37:22.648Z,10.51
2022-11-11T15:40:49.857Z,11.28
2022-11-11T15:44:32.494Z,10.87
2022-11-11T15:47:54.330Z,11.07
2022-11-11T15:51:38.758Z,10.85
2022-11-11T15:55:02.249Z,10.39
2022-11-11T15:58:26.398Z,10.18
2022-11-11T16:01:47.765Z,10.09
2022-11-11T16:05:22.950Z,10.11
2022-11-11T16:08:53.580Z,10.54
2022-11-11T16:12:24.517Z,10.56
2022-11-11T16:15:56.918Z,10.77
2022-11-11T16:19:26.016Z,10.46
2022-11-11T16:22:48.850Z,9.94
2022-11-11T16:26:10.708Z,10.00
2022-11-11T16:29:38.876Z,10.06
2022-11-11T16:32:59.834Z,9.84
2022-11-11T16:36:20.993Z,9.76
2022-11-11T16:39:43.487Z,9.56
2022-11-11T16:43:22.721Z,9.16
2022-11-11T16:46:44.108Z,8.98
2022-11-11T16:50:10.740Z,8.87
2022-11-11T16:53:36.023Z,9.06
2022-11-11T16:56:59.567Z,9.16
2022-11-11T17:00:24.229Z,9.41
2022-11-11T17:03:54.388Z,9.36
2022-11-11T17:07:35.795Z,8.95
2022-11-11T17:10:56.903Z,8.71
2022-11-11T17:14:18.044Z,8.60
2022-11-11T17:17:40.677Z,8.47
2022-11-11T17:21:02.570Z,8.41
2022-11-11T17:24:23.834Z,8.36
2022-11-11T17:27:45.345Z,8.36
2022-11-11T17:31:08.695Z,8.24
2022-11-11T17:34:29.889Z,8.16
2022-11-11T17:37:51.157Z,8.26
2022-11-11T17:41:15.682Z,8.20
2022-11-11T17:44:36.810Z,8.15
2022-11-11T17:47:57.808Z,8.13
2022-11-11T17:51:19.284Z,7.99
2022-11-11T17:54:40.325Z,7.98
2022-11-11T17:58:01.634Z,7.88
2022-11-11T18:01:22.950Z,7.80
2022-11-11T18:04:44.087Z,7.76
2022-11-11T18:08:05.586Z,7.73
2022-11-11T18:11:26.330Z,7.78
2022-11-11T18:14:47.109Z,7.83
2022-11-11T18:18:08.159Z,7.66
2022-11-11T18:21:29.619Z,7.62
2022-11-11T18:24:50.895Z,7.60
2022-11-11T18:28:11.924Z,7.63
2022-11-11T18:31:33.833Z,7.51
2022-11-11T18:34:54.712Z,7.55
2022-11-11T18:38:15.811Z,7.55
2022-11-11T18:41:37.031Z,7.46
2022-11-11T18:44:58.368Z,7.39
2022-11-11T18:48:19.684Z,7.36
2022-11-11T18:51:41.613Z,7.35
2022-11-11T18:55:02.769Z,7.45
2022-11-11T18:58:24.074Z,7.46
2022-11-11T19:01:47.284Z,7.49
2022-11-11T19:05:12.048Z,7.46
2022-11-11T19:08:35.361Z,7.41
2022-11-11T19:11:56.898Z,7.31
2022-11-11T19:15:18.273Z,7.24
2022-11-11T19:18:40.210Z,7.17
2022-11-11T19:22:01.648Z,7.16
2022-11-11T19:25:22.598Z,7.15
2022-11-11T19:28:43.700Z,7.17
2022-11-11T19:32:05.508Z,7.17
2022-11-11T19:35:27.007Z,7.14
2022-11-11T19:38:48.773Z,7.14
2022-11-11T19:42:10.299Z,7.05
2022-11-11T19:45:36.635Z,7.07
2022-11-11T19:48:59.545Z,7.02
2022-11-11T19:52:20.597Z,7.04
2022-11-11T19:55:41.848Z,7.01
2022-11-11T19:59:03.536Z,7.00
2022-11-11T20:02:24.289Z,6.97
2022-11-11T20:05:45.133Z,6.99
2022-11-11T20:09:07.776Z,6.96
2022-11-11T20:12:28.696Z,7.03
2022-11-11T20:15:49.619Z,6.99
2022-11-11T20:19:10.847Z,6.98
2022-11-11T20:22:31.786Z,7.13
2022-11-11T20:25:54.114Z,7.03
2022-11-11T20:29:15.598Z,7.24
2022-11-11T20:32:36.663Z,7.18
2022-11-11T20:36:02.188Z,7.15
2022-11-11T20:39:23.474Z,7.06
2022-11-11T20:42:44.582Z,7.22
2022-11-11T20:46:25.956Z,7.19
2022-11-11T20:49:47.651Z,7.10
2022-11-11T20:53:08.358Z,6.94
2022-11-11T20:56:29.616Z,6.79
2022-11-11T20:59:50.751Z,6.76
2022-11-11T21:03:11.972Z,6.65
2022-11-11T21:06:34.933Z,6.54
2022-11-11T21:09:56.146Z,6.48
2022-11-11T21:13:17.644Z,6.30
2022-11-11T21:16:38.833Z,6.29
2022-11-11T21:20:00.020Z,6.24
2022-11-11T21:23:21.271Z,6.22
2022-11-11T21:26:42.286Z,6.21
2022-11-11T21:30:03.513Z,6.10
2022-11-11T21:33:24.852Z,6.11
2022-11-11T21:36:46.034Z,6.00
2022-11-11T21:40:07.721Z,5.93
2022-11-11T21:43:28.711Z,5.89
2022-11-11T21:46:49.722Z,5.83
2022-11-11T21:50:10.865Z,5.89
2022-11-11T21:53:32.378Z,5.88
2022-11-11T21:56:54.606Z,5.93
2022-11-11T22:00:15.849Z,5.82
2022-11-11T22:03:38.449Z,5.64
2022-11-11T22:06:59.343Z,5.61
2022-11-11T22:10:20.156Z,5.59
2022-11-11T22:13:45.227Z,5.57
2022-11-11T22:17:06.406Z,5.50
2022-11-11T22:20:27.208Z,5.41
2022-11-11T22:23:52.816Z,5.42
2022-11-11T22:27:13.990Z,5.45
2022-11-11T22:30:34.816Z,5.58
2022-11-11T22:34:00.153Z,5.63
2022-11-11T22:37:21.589Z,5.67
2022-11-11T22:40:42.459Z,5.75
2022-11-11T22:44:03.583Z,5.79
2022-11-11T22:47:24.357Z,5.77
2022-11-11T22:50:45.266Z,5.96
2022-11-11T22:54:06.843Z,6.07
2022-11-11T22:57:30.762Z,6.07
2022-11-11T23:00:51.693Z,6.06
2022-11-11T23:04:12.832Z,6.02
2022-11-11T23:07:33.594Z,6.06
2022-11-11T23:10:54.588Z,6.07
2022-11-11T23:14:25.758Z,6.16
2022-11-11T23:17:51.278Z,6.33
2022-11-11T23:21:17.203Z,6.35
2022-11-11T23:24:38.067Z,6.46
2022-11-11T23:27:59.084Z,6.42
2022-11-11T23:31:47.792Z,6.44
2022-11-11T23:35:22.180Z,6.45
2022-11-11T23:38:44.852Z,6.37
2022-11-11T23:42:06.289Z,6.40
2022-11-11T23:45:27.373Z,6.40
2022-11-11T23:48:48.483Z,6.38
2022-11-11T23:52:09.494Z,6.40
2022-11-11T23:55:30.656Z,6.46
2022-11-11T23:58:51.439Z,6.53
